Time;durP1;ratioP1;P1;durP2;ratioP2;P2;SDS_P1;SDS_P2;PMS_P1;PMS_P2;Temp;Humidity;BMP_temperature;BMP_pressure;BME280_temperature;BME280_humidity;BME280_pressure;Samples;Min_cycle;Max_cycle;Signal;HPM_P1;HPM_P2
2021/11/26 00:01:10;;;;;;;0.08;0.08;;;;;;;7.61;70.97;100417.69;7367151;19;20018;-61
2021/11/26 00:03:36;;;;;;;0.00;0.00;;;;;;;7.65;71.06;100414.13;7357698;19;20011;-61
2021/11/26 00:06:01;;;;;;;0.00;0.00;;;;;;;7.70;71.64;100407.13;7361671;19;20034;-61
2021/11/26 00:08:27;;;;;;;0.10;0.10;;;;;;;7.50;71.27;100353.75;7362630;19;20024;-61
2021/11/26 00:10:52;;;;;;;0.00;0.00;;;;;;;7.77;71.07;100377.56;7360537;19;20006;-61
2021/11/26 00:13:18;;;;;;;0.00;0.00;;;;;;;7.84;71.69;100366.19;7365305;19;20123;-61
2021/11/26 00:15:44;;;;;;;0.00;0.00;;;;;;;7.89;71.35;100364.34;7362217;19;20044;-61
2021/11/26 00:18:17;;;;;;;0.10;0.10;;;;;;;7.94;71.30;100346.94;7360578;19;20019;-61
2021/11/26 00:20:43;;;;;;;0.10;0.10;;;;;;;7.96;71.17;100342.59;7363770;19;20018;-60
2021/11/26 00:23:09;;;;;;;0.00;0.00;;;;;;;7.98;71.40;100330.41;7359941;19;20355;-61
2021/11/26 00:25:35;;;;;;;0.00;0.00;;;;;;;7.93;71.16;100311.44;7351487;19;20031;-61
2021/11/26 00:28:01;;;;;;;0.00;0.00;;;;;;;8.01;71.67;100326.91;7360074;19;20015;-61
2021/11/26 00:30:27;;;;;;;0.00;0.00;;;;;;;8.02;71.35;100321.66;7355502;19;20021;-61
2021/11/26 00:32:52;;;;;;;0.03;0.03;;;;;;;7.52;71.67;100218.63;7362842;19;20043;-61
2021/11/26 00:35:18;;;;;;;0.00;0.00;;;;;;;8.04;71.96;100299.09;7364561;19;20018;-61
2021/11/26 00:37:44;;;;;;;0.00;0.00;;;;;;;8.06;71.83;100302.53;7365621;19;20014;-61
2021/11/26 00:40:10;;;;;;;0.10;0.10;;;;;;;8.10;71.60;100298.09;7364089;19;20015;-61
2021/11/26 00:42:35;;;;;;;0.10;0.10;;;;;;;8.11;72.26;100283.34;7365000;19;20018;-62
2021/11/26 00:45:01;;;;;;;0.10;0.10;;;;;;;8.14;72.04;100283.31;7354932;19;20761;-61
2021/11/26 00:47:26;;;;;;;0.00;0.00;;;;;;;8.14;72.07;100265.09;7363311;19;20006;-60
2021/11/26 00:49:52;;;;;;;0.10;0.10;;;;;;;8.18;71.98;100265.00;7358724;19;20014;-61
2021/11/26 00:52:18;;;;;;;0.00;0.00;;;;;;;8.21;71.96;100254.56;7357893;19;20328;-61
2021/11/26 00:54:44;;;;;;;0.00;0.00;;;;;;;8.23;72.23;100254.53;7359555;19;20002;-62
2021/11/26 00:57:10;;;;;;;0.05;0.05;;;;;;;8.24;72.73;100236.28;7357479;19;20037;-61
2021/11/26 00:59:37;;;;;;;0.00;0.00;;;;;;;8.29;72.15;100233.59;7362143;19;20014;-60
2021/11/26 01:02:05;;;;;;;0.00;0.00;;;;;;;8.31;71.97;100208.38;7364952;19;20733;-61
2021/11/26 01:04:30;;;;;;;0.00;0.00;;;;;;;8.30;72.35;100197.13;7359501;19;20006;-61
2021/11/26 01:06:56;;;;;;;0.10;0.10;;;;;;;8.22;72.34;100172.19;7364092;19;20093;-61
2021/11/26 01:09:22;;;;;;;0.08;0.08;;;;;;;8.37;73.18;100187.50;7358703;19;20053;-59
2021/11/26 01:11:47;;;;;;;0.00;0.00;;;;;;;8.38;72.78;100189.19;7362127;19;20021;-61
2021/11/26 01:14:13;;;;;;;0.10;0.10;;;;;;;8.38;72.90;100157.97;7359933;19;20010;-61
2021/11/26 01:16:38;;;;;;;0.00;0.00;;;;;;;8.41;72.86;100155.28;7362329;19;20029;-61
2021/11/26 01:19:04;;;;;;;0.00;0.00;;;;;;;8.44;73.31;100151.78;7362204;19;20025;-61
2021/11/26 01:21:29;;;;;;;0.00;0.00;;;;;;;8.44;73.18;100147.44;7363094;19;20081;-61
2021/11/26 01:23:55;;;;;;;0.10;0.10;;;;;;;8.45;73.09;100137.88;7362814;19;20073;-61
2021/11/26 01:26:20;;;;;;;0.00;0.00;;;;;;;8.46;73.33;100129.16;7358280;19;20018;-61
2021/11/26 01:28:47;;;;;;;0.00;0.00;;;;;;;8.46;73.17;100117.00;7360481;19;20019;-61
2021/11/26 01:31:13;;;;;;;0.00;0.00;;;;;;;8.47;73.59;100110.94;7339655;19;20025;-61
2021/11/26 01:33:39;;;;;;;0.10;0.10;;;;;;;8.50;73.41;100095.25;7362743;19;20022;-62
2021/11/26 01:36:05;;;;;;;0.10;0.10;;;;;;;8.54;73.66;100096.88;7357140;19;20010;-61
2021/11/26 01:38:30;;;;;;;0.00;0.00;;;;;;;8.56;73.79;100089.88;7359643;19;20374;-61
2021/11/26 01:40:56;;;;;;;0.10;0.10;;;;;;;8.61;73.19;100070.69;7361484;19;20017;-61
2021/11/26 01:43:21;;;;;;;0.00;0.00;;;;;;;8.57;73.61;100064.75;7362404;19;20021;-61
2021/11/26 01:45:53;;;;;;;0.00;0.00;;;;;;;8.65;73.53;100068.00;7362585;19;20022;-61
2021/11/26 01:48:20;;;;;;;0.00;0.00;;;;;;;8.67;73.32;100060.13;7360826;19;20032;-61
2021/11/26 01:50:46;;;;;;;0.00;0.00;;;;;;;8.70;73.40;100060.06;7360143;19;20006;-61
2021/11/26 01:53:12;;;;;;;0.10;0.10;;;;;;;8.70;73.44;100039.25;7358227;19;20034;-61
2021/11/26 01:55:38;;;;;;;0.00;0.00;;;;;;;8.75;73.46;100026.97;7362391;19;20011;-61
2021/11/26 01:58:04;;;;;;;0.08;0.08;;;;;;;8.78;73.64;100021.69;7360981;19;20014;-61
2021/11/26 02:00:33;;;;;;;0.00;0.00;;;;;;;8.83;73.11;100004.19;7358925;19;20017;-61
2021/11/26 02:02:59;;;;;;;0.08;0.08;;;;;;;8.84;73.85;99987.69;7361366;19;20014;-61
2021/11/26 02:05:25;;;;;;;0.00;0.00;;;;;;;8.86;73.81;99988.47;7357870;19;20407;-61
2021/11/26 02:07:51;;;;;;;0.00;0.00;;;;;;;8.79;73.59;99958.31;7360641;19;20040;-61
2021/11/26 02:10:17;;;;;;;0.00;0.00;;;;;;;8.92;73.54;99972.72;7359649;19;20010;-60
2021/11/26 02:12:43;;;;;;;0.00;0.00;;;;;;;8.89;73.59;99956.31;7357239;19;20010;-61
2021/11/26 02:15:09;;;;;;;0.00;0.00;;;;;;;8.83;73.42;99926.94;7362951;19;20013;-61
2021/11/26 02:17:35;;;;;;;0.00;0.00;;;;;;;8.98;73.42;99941.28;7357820;19;20014;-61
2021/11/26 02:20:01;;;;;;;0.00;0.00;;;;;;;9.01;73.28;99941.19;7358510;19;20394;-61
2021/11/26 02:22:27;;;;;;;0.10;0.10;;;;;;;9.03;73.41;99939.41;7362199;19;20029;-61
2021/11/26 02:24:53;;;;;;;0.00;0.00;;;;;;;9.05;73.65;99937.59;7359592;19;20109;-61
2021/11/26 02:27:20;;;;;;;0.10;0.10;;;;;;;9.04;73.44;99925.47;7358585;19;20070;-61
2021/11/26 02:29:55;;;;;;;0.00;0.00;;;;;;;9.12;73.34;99919.19;7360170;19;20090;-61
2021/11/26 02:32:24;;;;;;;0.03;0.03;;;;;;;9.16;73.18;99913.84;7359654;19;20015;-61
2021/11/26 02:34:52;;;;;;;0.10;0.10;;;;;;;9.20;73.10;99898.97;7356008;19;20018;-61
2021/11/26 02:37:17;;;;;;;0.00;0.00;;;;;;;9.20;72.95;99898.97;7359440;19;20014;-61
2021/11/26 02:39:43;;;;;;;0.00;0.00;;;;;;;9.23;73.12;99878.06;7354248;19;20014;-60
2021/11/26 02:42:08;;;;;;;0.10;0.10;;;;;;;9.19;72.87;99856.47;7359592;19;20422;-61
2021/11/26 02:44:34;;;;;;;0.00;0.00;;;;;;;9.30;72.68;99864.78;7357232;19;20077;-61
2021/11/26 02:46:59;;;;;;;0.03;0.03;;;;;;;9.34;72.81;99860.34;7361990;19;20018;-61
2021/11/26 02:49:24;;;;;;;0.00;0.00;;;;;;;9.32;72.33;99841.28;7372056;19;20017;-61
2021/11/26 02:51:50;;;;;;;0.00;0.00;;;;;;;9.38;72.59;99835.03;7374398;19;20758;-61
2021/11/26 02:54:17;;;;;;;0.00;0.00;;;;;;;9.41;72.59;99833.19;7369318;19;20029;-61
2021/11/26 02:56:42;;;;;;;0.00;0.00;;;;;;;9.39;72.24;99821.13;7375991;19;20006;-62
2021/11/26 02:59:08;;;;;;;0.00;0.00;;;;;;;9.44;72.31;99821.81;7368921;19;20021;-61
2021/11/26 03:01:33;;;;;;;0.08;0.08;;;;;;;9.47;72.59;99813.88;7363381;19;20010;-62
2021/11/26 03:03:59;;;;;;;0.00;0.00;;;;;;;9.49;72.52;99818.16;7375041;19;20010;-61
2021/11/26 03:06:24;;;;;;;0.03;0.03;;;;;;;9.24;72.72;99766.00;7374287;19;20021;-61
2021/11/26 03:08:49;;;;;;;0.00;0.00;;;;;;;9.50;72.38;99799.00;7371741;19;20047;-61
2021/11/26 03:11:15;;;;;;;0.00;0.00;;;;;;;9.51;72.17;99795.50;7373754;19;20020;-61
2021/11/26 03:13:41;;;;;;;0.00;0.00;;;;;;;9.53;72.36;99819.78;7376409;19;20018;-61
2021/11/26 03:16:07;;;;;;;0.00;0.00;;;;;;;9.52;72.55;99781.56;7374234;19;20019;-62
2021/11/26 03:18:33;;;;;;;0.00;0.00;;;;;;;9.54;72.58;99764.13;7367089;19;20031;-62
2021/11/26 03:20:59;;;;;;;0.00;0.00;;;;;;;9.53;72.90;99757.22;7376275;19;20046;-61
2021/11/26 03:23:24;;;;;;;0.00;0.00;;;;;;;9.54;72.37;99738.06;7370833;19;20390;-62
2021/11/26 03:25:50;;;;;;;0.08;0.08;;;;;;;9.55;72.43;99750.19;7376417;19;20061;-62
2021/11/26 03:28:16;;;;;;;0.03;0.03;;;;;;;9.54;72.56;99732.84;7374758;19;20022;-61
2021/11/26 03:30:43;;;;;;;0.00;0.00;;;;;;;9.54;72.93;99732.84;7372589;19;20010;-61
2021/11/26 03:33:09;;;;;;;0.00;0.00;;;;;;;9.50;73.16;99714.78;7374441;19;20646;-62
2021/11/26 03:35:35;;;;;;;0.00;0.00;;;;;;;9.51;73.13;99721.69;7371861;19;20013;-62
2021/11/26 03:38:01;;;;;;;0.00;0.00;;;;;;;9.52;72.39;99719.00;7371792;19;20014;-61
2021/11/26 03:40:28;;;;;;;0.00;0.00;;;;;;;9.50;72.50;99705.19;7373423;19;20011;-61
2021/11/26 03:42:55;;;;;;;0.00;0.00;;;;;;;9.44;72.83;99689.78;7364044;19;20021;-62
2021/11/26 03:45:25;;;;;;;0.00;0.00;;;;;;;9.47;73.02;99683.59;7368935;19;20030;-59
2021/11/26 03:47:51;;;;;;;0.00;0.00;;;;;;;9.44;73.05;99666.31;7369396;19;20010;-61
2021/11/26 03:50:18;;;;;;;0.00;0.00;;;;;;;9.45;73.59;99655.00;7370146;19;20023;-61
2021/11/26 03:52:44;;;;;;;0.00;0.00;;;;;;;9.43;73.70;99654.22;7370825;19;20102;-61
2021/11/26 03:55:14;;;;;;;0.00;0.00;;;;;;;9.45;73.44;99638.50;7364131;19;20477;-61
2021/11/26 03:57:40;;;;;;;0.00;0.00;;;;;;;9.45;73.27;99643.72;7361114;19;20011;-61
2021/11/26 04:00:07;;;;;;;0.00;0.00;;;;;;;9.44;73.43;99631.59;7367941;19;20685;-62
2021/11/26 04:02:32;;;;;;;0.00;0.00;;;;;;;9.44;73.81;99631.59;7367596;19;20395;-62
2021/11/26 04:04:58;;;;;;;0.03;0.03;;;;;;;9.35;73.88;99622.34;7362718;19;20002;-62
2021/11/26 04:07:24;;;;;;;0.10;0.10;;;;;;;9.45;74.07;99633.28;7362045;19;20434;-62
2021/11/26 04:09:49;;;;;;;0.00;0.00;;;;;;;9.43;73.90;99615.13;7356937;19;20018;-61
2021/11/26 04:12:15;;;;;;;0.00;0.00;;;;;;;9.45;73.96;99613.28;7365194;19;20018;-61
2021/11/26 04:14:40;;;;;;;0.00;0.00;;;;;;;9.40;74.00;99599.59;7366785;19;20006;-62
2021/11/26 04:17:09;;;;;;;0.00;0.00;;;;;;;9.45;74.08;99582.03;7370687;19;20595;-62
2021/11/26 04:19:35;;;;;;;0.00;0.00;;;;;;;9.28;74.30;99558.34;7365907;19;20018;-61
2021/11/26 04:22:01;;;;;;;0.00;0.00;;;;;;;9.46;74.09;99577.66;7367372;19;20014;-62
2021/11/26 04:24:26;;;;;;;0.00;0.00;;;;;;;9.39;74.23;99553.59;7366830;19;20574;-61
2021/11/26 04:26:52;;;;;;;0.00;0.00;;;;;;;9.45;74.50;99539.50;7368724;19;20018;-62
2021/11/26 04:29:17;;;;;;;0.00;0.00;;;;;;;9.46;74.36;99552.44;7365266;19;20470;-62
2021/11/26 04:31:42;;;;;;;0.00;0.00;;;;;;;9.45;74.07;99545.56;7371039;19;20487;-61
2021/11/26 04:34:08;;;;;;;0.10;0.10;;;;;;;9.44;74.48;99543.84;7368675;19;20025;-61
2021/11/26 04:36:34;;;;;;;0.00;0.00;;;;;;;9.47;74.59;99548.09;7367257;19;20007;-62
2021/11/26 04:38:59;;;;;;;0.10;0.10;;;;;;;9.46;74.60;99547.25;7364035;19;20018;-61
2021/11/26 04:41:24;;;;;;;0.00;0.00;;;;;;;9.40;74.61;99515.34;7369662;19;20016;-61
2021/11/26 04:43:50;;;;;;;0.00;0.00;;;;;;;9.49;74.34;99536.72;7369774;19;20007;-61
2021/11/26 04:46:15;;;;;;;0.10;0.10;;;;;;;9.52;74.25;99533.97;7365586;19;20016;-61
2021/11/26 04:48:41;;;;;;;0.00;0.00;;;;;;;9.45;74.47;99503.84;7365701;19;20030;-62
2021/11/26 04:51:07;;;;;;;0.00;0.00;;;;;;;9.55;74.68;99514.78;7362093;19;20015;-62
2021/11/26 04:53:32;;;;;;;0.00;0.00;;;;;;;9.56;74.25;99525.16;7369126;19;20685;-62
2021/11/26 04:55:57;;;;;;;0.10;0.10;;;;;;;9.57;74.37;99523.38;7369307;19;20018;-61
2021/11/26 04:58:23;;;;;;;0.10;0.10;;;;;;;9.58;74.12;99520.75;7368119;19;21101;-62
2021/11/26 05:00:48;;;;;;;0.05;0.05;;;;;;;9.60;74.76;99526.75;7370268;19;20030;-61
2021/11/26 05:03:14;;;;;;;0.00;0.00;;;;;;;9.59;74.69;99517.22;7365173;19;20039;-62
2021/11/26 05:05:39;;;;;;;0.00;0.00;;;;;;;9.64;74.18;99508.38;7366952;19;20019;-62
2021/11/26 05:08:05;;;;;;;0.00;0.00;;;;;;;9.57;74.72;99487.75;7366744;19;20006;-61
2021/11/26 05:10:32;;;;;;;0.00;0.00;;;;;;;9.65;74.43;99497.06;7365782;19;20017;-62
2021/11/26 05:12:58;;;;;;;0.03;0.03;;;;;;;9.57;74.15;99476.47;7369476;19;20030;-62
2021/11/26 05:15:26;;;;;;;0.10;0.10;;;;;;;9.57;73.86;99477.31;7368061;19;20425;-62
2021/11/26 05:17:52;;;;;;;;;;;;;;;9.69;73.08;99490.81;7369435;19;20025;-61
2021/11/26 05:20:18;;;;;;;0.05;0.05;;;;;;;9.64;73.97;99487.53;7365070;19;20336;-62
2021/11/26 05:22:43;;;;;;;0.00;0.00;;;;;;;9.63;73.70;99486.69;7368461;19;19998;-62
2021/11/26 05:25:09;;;;;;;0.10;0.10;;;;;;;9.61;73.63;99494.53;7366518;19;20902;-62
2021/11/26 05:27:34;;;;;;;0.00;0.00;;;;;;;9.59;73.79;99496.38;7365652;19;20015;-61
2021/11/26 05:30:00;;;;;;;0.10;0.10;;;;;;;9.57;73.66;99498.16;7370417;19;20078;-62
2021/11/26 05:32:25;;;;;;;0.00;0.00;;;;;;;9.56;73.97;99491.25;7364436;19;20466;-62
2021/11/26 05:34:51;;;;;;;0.00;0.00;;;;;;;9.20;73.47;99419.72;7365447;19;20494;-62
2021/11/26 05:37:16;;;;;;;0.00;0.00;;;;;;;9.53;73.75;99475.75;7366183;19;20042;-61
2021/11/26 05:39:41;;;;;;;0.00;0.00;;;;;;;9.55;73.34;99488.72;7369516;19;20010;-62
2021/11/26 05:42:07;;;;;;;0.00;0.00;;;;;;;9.52;73.71;99489.69;7366368;19;20039;-61
2021/11/26 05:44:32;;;;;;;0.03;0.03;;;;;;;9.54;73.19;99489.66;7366428;19;20503;-62
2021/11/26 05:46:57;;;;;;;0.00;0.00;;;;;;;9.53;72.98;99490.53;7368031;19;20014;-62
2021/11/26 05:49:23;;;;;;;0.10;0.10;;;;;;;9.47;72.26;99501.19;7365787;19;20030;-62
2021/11/26 05:51:48;;;;;;;0.00;0.00;;;;;;;9.47;72.64;99502.03;7369605;19;20974;-61
2021/11/26 05:54:14;;;;;;;0.10;0.10;;;;;;;9.47;72.36;99506.41;7366982;19;20025;-62
2021/11/26 05:56:39;;;;;;;0.00;0.00;;;;;;;9.46;72.68;99492.53;7363991;19;20441;-62
2021/11/26 05:59:04;;;;;;;0.08;0.08;;;;;;;9.44;72.39;99491.75;7368325;19;20010;-61
2021/11/26 06:01:30;;;;;;;0.08;0.08;;;;;;;9.40;72.14;99489.31;7366962;19;20017;-61
2021/11/26 06:03:55;;;;;;;0.00;0.00;;;;;;;9.32;72.54;99481.75;7363431;19;20026;-61
2021/11/26 06:06:21;;;;;;;0.00;0.00;;;;;;;9.42;72.82;99477.06;7364188;19;20014;-61
2021/11/26 06:08:46;;;;;;;0.00;0.00;;;;;;;9.43;73.01;99478.75;7363988;19;20086;-61
2021/11/26 06:11:11;;;;;;;0.10;0.10;;;;;;;9.35;72.77;99460.81;7367648;19;20016;-61
2021/11/26 06:13:37;;;;;;;0.10;0.10;;;;;;;9.46;72.86;99466.47;7366301;19;20014;-62
2021/11/26 06:16:02;;;;;;;0.00;0.00;;;;;;;9.40;72.89;99464.09;7365056;19;20010;-62
2021/11/26 06:18:28;;;;;;;0.00;0.00;;;;;;;9.46;72.62;99471.69;7366427;19;20022;-61
2021/11/26 06:20:53;;;;;;;0.00;0.00;;;;;;;9.51;71.89;99489.75;7362537;19;20118;-61
2021/11/26 06:23:19;;;;;;;0.10;0.10;;;;;;;9.45;72.38;99466.53;7366795;19;20018;-61
2021/11/26 06:25:44;;;;;;;0.00;0.00;;;;;;;9.52;71.97;99473.19;7366057;19;20498;-62
2021/11/26 06:28:09;;;;;;;0.00;0.00;;;;;;;9.54;71.66;99480.06;7366925;19;20714;-62
2021/11/26 06:30:35;;;;;;;0.00;0.00;;;;;;;9.53;71.51;99480.97;7366686;19;20010;-62
2021/11/26 06:33:00;;;;;;;0.00;0.00;;;;;;;9.57;71.07;99466.91;7363212;19;20014;-62
2021/11/26 06:35:26;;;;;;;0.00;0.00;;;;;;;9.58;70.84;99471.22;7365758;19;20014;-62
2021/11/26 06:37:54;;;;;;;0.00;0.00;;;;;;;9.61;71.00;99471.09;7367827;19;20092;-62
2021/11/26 06:40:20;;;;;;;0.00;0.00;;;;;;;9.60;70.90;99485.03;7360198;19;20014;-61
2021/11/26 06:42:46;;;;;;;0.00;0.00;;;;;;;9.60;70.88;99473.75;7366990;19;20082;-62
2021/11/26 06:45:11;;;;;;;0.00;0.00;;;;;;;9.53;70.52;99459.25;7359047;19;20010;-62
2021/11/26 06:47:37;;;;;;;0.10;0.10;;;;;;;9.55;70.04;99468.72;7364239;19;20026;-62
2021/11/26 06:50:04;;;;;;;0.00;0.00;;;;;;;9.51;70.09;99467.13;7363571;19;20086;-62
2021/11/26 06:52:29;;;;;;;0.00;0.00;;;;;;;9.49;70.13;99468.97;7359345;19;20030;-62
2021/11/26 06:54:54;;;;;;;0.00;0.00;;;;;;;9.35;70.28;99446.03;7367146;19;20764;-61
2021/11/26 06:57:20;;;;;;;0.00;0.00;;;;;;;9.42;69.86;99457.06;7364925;19;20030;-62
2021/11/26 06:59:45;;;;;;;0.08;0.08;;;;;;;9.38;70.09;99468.53;7364120;19;20014;-61
2021/11/26 07:02:11;;;;;;;0.00;0.00;;;;;;;9.33;70.12;99457.44;7361995;19;20014;-62
2021/11/26 07:04:38;;;;;;;0.00;0.00;;;;;;;9.18;69.97;99431.97;7364441;19;20495;-62
2021/11/26 07:07:03;;;;;;;0.00;0.00;;;;;;;9.17;70.37;99449.31;7366032;19;20002;-61
2021/11/26 07:09:29;;;;;;;0.00;0.00;;;;;;;9.27;70.26;99458.47;7358862;19;20030;-62
2021/11/26 07:11:54;;;;;;;0.10;0.10;;;;;;;9.24;70.35;99457.75;7365525;19;20748;-61
2021/11/26 07:14:20;;;;;;;0.00;0.00;;;;;;;9.28;69.92;99451.53;7361687;19;20013;-61
2021/11/26 07:16:45;;;;;;;0.00;0.00;;;;;;;9.28;69.96;99448.94;7358670;19;20025;-61
2021/11/26 07:19:11;;;;;;;0.00;0.00;;;;;;;9.25;69.43;99465.50;7360933;19;20547;-61
2021/11/26 07:21:36;;;;;;;0.00;0.00;;;;;;;9.22;69.46;99468.22;7359815;19;20025;-61
2021/11/26 07:24:02;;;;;;;0.00;0.00;;;;;;;9.19;69.65;99467.50;7360985;19;20737;-62
2021/11/26 07:26:27;;;;;;;0.00;0.00;;;;;;;9.12;69.25;99476.44;7358649;19;20350;-61
2021/11/26 07:28:52;;;;;;;0.00;0.00;;;;;;;9.08;69.40;99481.75;7356085;19;20414;-61
2021/11/26 07:31:18;;;;;;;0.10;0.10;;;;;;;9.04;68.98;99485.38;7362168;19;20343;-61
2021/11/26 07:33:43;;;;;;;0.10;0.10;;;;;;;8.99;69.33;99481.25;7361850;19;20006;-62
2021/11/26 07:36:09;;;;;;;0.00;0.00;;;;;;;8.94;69.48;99481.41;7367017;19;20725;-61
2021/11/26 07:38:35;;;;;;;0.00;0.00;;;;;;;8.90;69.15;99489.38;7367142;19;20022;-61
2021/11/26 07:41:01;;;;;;;0.00;0.00;;;;;;;8.80;69.47;99481.88;7368897;19;20078;-61
2021/11/26 07:43:27;;;;;;;0.10;0.10;;;;;;;8.79;69.33;99487.16;7362580;19;20018;-61
2021/11/26 07:45:52;;;;;;;0.00;0.00;;;;;;;8.75;68.90;99476.00;7366730;19;20476;-61
2021/11/26 07:48:18;;;;;;;0.10;0.10;;;;;;;8.73;69.34;99484.78;7371796;19;20029;-62
2021/11/26 07:50:44;;;;;;;0.00;0.00;;;;;;;8.69;69.27;99486.63;7368091;19;20451;-61
2021/11/26 07:53:10;;;;;;;0.10;0.10;;;;;;;8.64;69.18;99490.28;7370038;19;20018;-61
2021/11/26 07:55:35;;;;;;;0.00;0.00;;;;;;;8.62;69.03;99486.88;7370626;19;20014;-61
2021/11/26 07:58:02;;;;;;;0.00;0.00;;;;;;;8.53;68.99;99475.88;7361468;19;20028;-61
2021/11/26 08:00:27;;;;;;;0.00;0.00;;;;;;;8.55;69.13;99478.44;7357108;19;20046;-61
2021/11/26 08:02:55;;;;;;;0.00;0.00;;;;;;;8.40;68.96;99463.34;7366067;19;20493;-61
2021/11/26 08:05:20;;;;;;;0.00;0.00;;;;;;;8.51;69.03;99493.28;7365454;19;20049;-62
2021/11/26 08:07:46;;;;;;;0.10;0.10;;;;;;;8.47;68.70;99473.50;7361078;19;20002;-61
2021/11/26 08:10:12;;;;;;;0.00;0.00;;;;;;;8.41;68.61;99467.63;7355929;19;20023;-61
2021/11/26 08:12:39;;;;;;;0.00;0.00;;;;;;;8.43;68.46;99469.28;7350864;19;20931;-61
2021/11/26 08:15:06;;;;;;;0.10;0.10;;;;;;;8.40;68.42;99479.78;7350892;19;20014;-62
2021/11/26 08:17:31;;;;;;;0.00;0.00;;;;;;;8.38;68.74;99491.16;7360674;19;20013;-61
2021/11/26 08:19:57;;;;;;;0.10;0.10;;;;;;;8.33;68.93;99481.72;7359014;19;20014;-62
2021/11/26 08:22:22;;;;;;;0.00;0.00;;;;;;;8.26;68.65;99466.34;7367438;19;20014;-61
2021/11/26 08:24:48;;;;;;;0.10;0.10;;;;;;;8.33;68.39;99486.06;7367389;19;20664;-61
2021/11/26 08:27:13;;;;;;;0.00;0.00;;;;;;;8.22;68.09;99469.97;7369726;19;20010;-61
2021/11/26 08:29:42;;;;;;;0.00;0.00;;;;;;;8.27;68.45;99475.88;7366180;19;20023;-61
2021/11/26 08:32:08;;;;;;;0.00;0.00;;;;;;;8.19;68.01;99470.06;7365668;19;20018;-62
2021/11/26 08:34:33;;;;;;;0.00;0.00;;;;;;;8.26;68.00;99471.56;7365033;19;20536;-62
2021/11/26 08:36:58;;;;;;;0.10;0.10;;;;;;;8.24;67.45;99468.16;7367829;19;20010;-61
2021/11/26 08:39:24;;;;;;;0.10;0.10;;;;;;;8.26;67.25;99476.75;7363303;19;20017;-61
2021/11/26 08:41:49;;;;;;;0.00;0.00;;;;;;;8.26;67.05;99479.34;7363344;19;20010;-62
2021/11/26 08:44:15;;;;;;;0.00;0.00;;;;;;;8.26;67.24;99461.16;7367633;19;20696;-61
2021/11/26 08:46:40;;;;;;;0.00;0.00;;;;;;;8.31;67.37;99467.94;7362624;19;20042;-61
2021/11/26 08:49:06;;;;;;;0.00;0.00;;;;;;;8.34;66.96;99472.16;7367796;19;20042;-62
2021/11/26 08:51:37;;;;;;;0.10;0.10;;;;;;;8.38;66.84;99481.59;7368159;19;20042;-61
2021/11/26 08:54:03;;;;;;;0.00;0.00;;;;;;;8.35;66.93;99475.59;7367199;19;20011;-61
2021/11/26 08:56:29;;;;;;;0.00;0.00;;;;;;;8.44;66.66;99472.75;7365505;19;20507;-61
2021/11/26 08:58:55;;;;;;;0.10;0.10;;;;;;;8.37;66.76;99453.91;7358564;19;20007;-61
2021/11/26 09:01:20;;;;;;;0.00;0.00;;;;;;;8.35;67.14;99447.84;7364556;19;20015;-61
2021/11/26 09:03:49;;;;;;;0.00;0.00;;;;;;;8.56;67.09;99485.31;7365728;19;20653;-61
2021/11/26 09:06:16;;;;;;;0.00;0.00;;;;;;;8.51;66.88;99476.81;7364043;19;20003;-62
2021/11/26 09:08:41;;;;;;;0.10;0.10;;;;;;;8.65;66.93;99499.78;7368374;19;20002;-61
2021/11/26 09:11:07;;;;;;;0.00;0.00;;;;;;;8.63;66.46;99483.38;7368224;19;20103;-62
2021/11/26 09:13:32;;;;;;;0.00;0.00;;;;;;;8.74;66.86;99496.88;7369591;19;20010;-61
2021/11/26 09:15:57;;;;;;;0.10;0.10;;;;;;;8.79;66.35;99487.16;7363835;19;20007;-61
2021/11/26 09:18:23;;;;;;;0.00;0.00;;;;;;;8.89;66.26;99491.13;7367935;19;20002;-61
2021/11/26 09:20:53;;;;;;;0.00;0.00;;;;;;;8.94;65.80;99490.97;7362067;19;20525;-61
2021/11/26 09:23:21;;;;;;;0.00;0.00;;;;;;;9.03;66.12;99477.63;7367244;19;20046;-61
2021/11/26 09:25:48;;;;;;;0.00;0.00;;;;;;;9.10;65.69;99492.97;7364826;19;20482;-61
2021/11/26 09:28:14;;;;;;;0.00;0.00;;;;;;;9.21;65.41;99486.53;7369620;19;20028;-62
2021/11/26 09:30:40;;;;;;;0.10;0.10;;;;;;;9.24;65.37;99483.81;7360291;19;20015;-61
2021/11/26 09:33:06;;;;;;;0.08;0.08;;;;;;;9.39;65.00;99485.00;7365625;19;20017;-61
2021/11/26 09:35:32;;;;;;;0.00;0.00;;;;;;;9.49;65.05;99474.19;7368130;19;20026;-61
2021/11/26 09:37:59;;;;;;;0.10;0.10;;;;;;;9.63;65.14;99471.06;7367644;19;20025;-61
2021/11/26 09:40:25;;;;;;;0.00;0.00;;;;;;;9.78;64.87;99456.53;7362007;19;20015;-61
2021/11/26 09:42:50;;;;;;;0.10;0.10;;;;;;;9.95;65.22;99476.75;7363955;19;20014;-62
2021/11/26 09:45:21;;;;;;;0.00;0.00;;;;;;;10.05;64.87;99458.06;7361801;19;20007;-62
2021/11/26 09:47:47;;;;;;;0.00;0.00;;;;;;;10.10;63.93;99469.16;7366639;19;20395;-61
2021/11/26 09:50:12;;;;;;;0.00;0.00;;;;;;;10.19;63.73;99459.25;7366585;19;20018;-61
2021/11/26 09:52:42;;;;;;;0.00;0.00;;;;;;;10.31;63.98;99458.78;7358667;19;20017;-62
2021/11/26 09:55:09;;;;;;;0.10;0.10;;;;;;;10.34;63.04;99449.09;7367509;19;20014;-61
2021/11/26 09:57:35;;;;;;;0.10;0.10;;;;;;;10.36;62.41;99451.63;7363205;19;20011;-62
2021/11/26 10:00:02;;;;;;;0.00;0.00;;;;;;;10.36;62.75;99456.84;7361879;19;20022;-61
2021/11/26 10:02:28;;;;;;;0.05;0.05;;;;;;;10.39;63.07;99454.09;7364998;19;20741;-61
2021/11/26 10:05:00;;;;;;;0.00;0.00;;;;;;;10.34;63.99;99423.00;7362370;19;20022;-62
2021/11/26 10:07:27;;;;;;;0.00;0.00;;;;;;;10.56;62.29;99464.69;7365342;19;20010;-62
2021/11/26 10:09:54;;;;;;;0.10;0.10;;;;;;;10.67;62.08;99466.84;7359011;19;20021;-61
2021/11/26 10:12:19;;;;;;;0.08;0.08;;;;;;;10.82;62.33;99457.50;7364843;19;20018;-61
2021/11/26 10:14:47;;;;;;;0.00;0.00;;;;;;;10.98;62.82;99473.34;7363206;19;20024;-61
2021/11/26 10:17:22;;;;;;;0.00;0.00;;;;;;;11.23;62.34;99454.81;7362161;19;20023;-62
2021/11/26 10:19:51;;;;;;;0.00;0.00;;;;;;;11.42;61.64;99460.91;7365404;19;20015;-62
2021/11/26 10:22:30;;;;;;;0.00;0.00;;;;;;;11.68;61.92;99452.69;7361559;19;20025;-61
2021/11/26 10:25:03;;;;;;;0.00;0.00;;;;;;;11.86;60.56;99457.97;7365095;19;20094;-62
2021/11/26 10:27:32;;;;;;;0.00;0.00;;;;;;;12.02;59.94;99451.13;7361871;19;20007;-62
2021/11/26 10:30:38;;;;;;;0.10;0.10;;;;;;;12.13;61.09;99454.06;7365581;19;20417;-61
2021/11/26 10:33:13;;;;;;;0.10;0.10;;;;;;;12.54;60.46;99461.63;7263726;19;2004372;-62
2021/11/26 10:35:42;;;;;;;0.10;0.10;;;;;;;12.71;58.69;99463.38;7361218;19;20027;-62
2021/11/26 10:38:07;;;;;;;0.00;0.00;;;;;;;12.84;58.02;99476.69;7364355;19;19998;-62
2021/11/26 10:40:36;;;;;;;0.10;0.10;;;;;;;13.04;57.99;99473.88;7358866;19;20029;-62
2021/11/26 10:43:05;;;;;;;0.00;0.00;;;;;;;13.12;57.32;99461.19;7363266;19;20014;-62
2021/11/26 10:51:34;;;;;;;0.00;0.00;;;;;;;13.22;56.07;99465.06;7255519;19;2004338;-62
2021/11/26 10:59:39;;;;;;;0.00;0.00;;;;;;;12.65;56.04;99480.25;7362209;19;20037;-62
2021/11/26 11:02:06;;;;;;;0.00;0.00;;;;;;;12.37;56.91;99457.22;7364255;19;20022;-62
2021/11/26 11:04:32;;;;;;;0.10;0.10;;;;;;;12.25;56.38;99473.53;7366480;19;20027;-62
2021/11/26 11:07:05;;;;;;;0.00;0.00;;;;;;;12.06;57.15;99467.50;7361737;19;20006;-61
2021/11/26 11:09:56;;;;;;;0.00;0.00;;;;;;;11.85;58.13;99471.97;7368555;19;20006;-62
2021/11/26 11:12:31;;;;;;;0.00;0.00;;;;;;;11.62;57.74;99463.44;7365079;19;20012;-62
2021/11/26 11:14:59;;;;;;;0.00;0.00;;;;;;;11.42;57.58;99466.13;7361656;19;20014;-62
2021/11/26 11:17:29;;;;;;;0.00;0.00;;;;;;;11.13;57.51;99444.75;7368023;19;20006;-62
2021/11/26 11:20:05;;;;;;;0.00;0.00;;;;;;;11.15;58.52;99463.84;7359884;19;20018;-62
2021/11/26 11:22:32;;;;;;;0.00;0.00;;;;;;;10.93;58.12;99436.13;7366924;19;20034;-62
2021/11/26 11:24:57;;;;;;;0.00;0.00;;;;;;;10.98;58.45;99455.06;7368732;19;20086;-62
2021/11/26 11:27:23;;;;;;;0.00;0.00;;;;;;;11.06;58.69;99469.47;7366109;19;20070;-61
2021/11/26 11:29:48;;;;;;;0.00;0.00;;;;;;;11.20;58.77;99454.94;7370780;19;20040;-61
2021/11/26 11:32:14;;;;;;;0.03;0.03;;;;;;;11.42;58.20;99460.91;7368829;19;20351;-61
2021/11/26 11:34:41;;;;;;;0.05;0.05;;;;;;;11.53;58.19;99461.25;7370104;19;20518;-62
2021/11/26 11:37:09;;;;;;;0.00;0.00;;;;;;;11.58;57.54;99440.13;7368091;19;20009;-62
2021/11/26 11:39:47;;;;;;;0.00;0.00;;;;;;;11.86;58.71;99453.63;7371281;19;20010;-62
2021/11/26 11:42:23;;;;;;;0.10;0.10;;;;;;;11.91;56.62;99461.22;7370713;19;20020;-62
2021/11/26 11:44:59;;;;;;;0.00;0.00;;;;;;;11.99;57.65;99453.03;7370509;19;20473;-62
2021/11/26 11:47:25;;;;;;;0.00;0.00;;;;;;;11.98;56.82;99459.19;7372394;19;20103;-61